sensor_id;sensor_type;location;lat;lon;timestamp;P1;durP1;ratioP1;P2;durP2;ratioP2
76727;SDS011;65652;53.132;18.026;2023-04-24T00:00:29;29.30;;;14.10;;
76727;SDS011;65652;53.132;18.026;2023-04-24T00:03:16;31.70;;;14.60;;
76727;SDS011;65652;53.132;18.026;2023-04-24T00:05:46;35.30;;;15.30;;
76727;SDS011;65652;53.132;18.026;2023-04-24T00:08:13;35.90;;;14.60;;
76727;SDS011;65652;53.132;18.026;2023-04-24T00:10:39;38.60;;;15.60;;
76727;SDS011;65652;53.132;18.026;2023-04-24T00:13:05;38.00;;;15.70;;
76727;SDS011;65652;53.132;18.026;2023-04-24T00:15:31;31.10;;;15.00;;
76727;SDS011;65652;53.132;18.026;2023-04-24T00:17:58;29.60;;;13.60;;
76727;SDS011;65652;53.132;18.026;2023-04-24T00:20:27;24.40;;;11.90;;
76727;SDS011;65652;53.132;18.026;2023-04-24T00:22:58;24.70;;;11.20;;
76727;SDS011;65652;53.132;18.026;2023-04-24T00:25:24;22.80;;;11.60;;
76727;SDS011;65652;53.132;18.026;2023-04-24T00:27:50;20.80;;;10.80;;
76727;SDS011;65652;53.132;18.026;2023-04-24T00:30:17;21.60;;;10.40;;
76727;SDS011;65652;53.132;18.026;2023-04-24T00:32:43;25.70;;;11.00;;
76727;SDS011;65652;53.132;18.026;2023-04-24T00:35:09;20.60;;;10.70;;
76727;SDS011;65652;53.132;18.026;2023-04-24T00:37:36;20.30;;;10.80;;
76727;SDS011;65652;53.132;18.026;2023-04-24T00:40:02;22.40;;;10.60;;
76727;SDS011;65652;53.132;18.026;2023-04-24T00:42:29;21.40;;;9.60;;
76727;SDS011;65652;53.132;18.026;2023-04-24T00:44:56;17.00;;;9.40;;
76727;SDS011;65652;53.132;18.026;2023-04-24T00:47:22;17.70;;;9.80;;
76727;SDS011;65652;53.132;18.026;2023-04-24T00:49:49;15.70;;;9.10;;
76727;SDS011;65652;53.132;18.026;2023-04-24T00:52:15;15.90;;;8.80;;
76727;SDS011;65652;53.132;18.026;2023-04-24T00:57:11;14.10;;;8.20;;
76727;SDS011;65652;53.132;18.026;2023-04-24T00:59:41;14.60;;;8.70;;
76727;SDS011;65652;53.132;18.026;2023-04-24T01:02:08;14.40;;;9.30;;
76727;SDS011;65652;53.132;18.026;2023-04-24T01:04:37;15.90;;;9.00;;
76727;SDS011;65652;53.132;18.026;2023-04-24T01:07:04;18.80;;;9.50;;
76727;SDS011;65652;53.132;18.026;2023-04-24T01:09:36;19.00;;;10.20;;
76727;SDS011;65652;53.132;18.026;2023-04-24T01:12:05;17.30;;;10.00;;
76727;SDS011;65652;53.132;18.026;2023-04-24T01:14:32;17.70;;;10.20;;
76727;SDS011;65652;53.132;18.026;2023-04-24T01:16:59;20.00;;;10.10;;
76727;SDS011;65652;53.132;18.026;2023-04-24T01:19:27;18.20;;;10.20;;
76727;SDS011;65652;53.132;18.026;2023-04-24T01:21:53;16.70;;;10.10;;
76727;SDS011;65652;53.132;18.026;2023-04-24T01:24:22;19.60;;;10.10;;
76727;SDS011;65652;53.132;18.026;2023-04-24T01:26:49;18.70;;;10.10;;
76727;SDS011;65652;53.132;18.026;2023-04-24T01:29:15;17.00;;;9.70;;
76727;SDS011;65652;53.132;18.026;2023-04-24T01:31:43;16.30;;;9.40;;
76727;SDS011;65652;53.132;18.026;2023-04-24T01:34:09;15.40;;;9.70;;
76727;SDS011;65652;53.132;18.026;2023-04-24T01:36:36;17.00;;;9.50;;
76727;SDS011;65652;53.132;18.026;2023-04-24T01:39:04;15.80;;;9.70;;
76727;SDS011;65652;53.132;18.026;2023-04-24T01:41:31;16.70;;;9.60;;
76727;SDS011;65652;53.132;18.026;2023-04-24T01:43:58;15.30;;;9.60;;
76727;SDS011;65652;53.132;18.026;2023-04-24T01:46:24;16.60;;;10.70;;
76727;SDS011;65652;53.132;18.026;2023-04-24T01:48:50;15.70;;;9.80;;
76727;SDS011;65652;53.132;18.026;2023-04-24T01:51:19;15.60;;;9.20;;
76727;SDS011;65652;53.132;18.026;2023-04-24T01:53:45;17.30;;;9.80;;
76727;SDS011;65652;53.132;18.026;2023-04-24T01:56:11;17.70;;;10.40;;
76727;SDS011;65652;53.132;18.026;2023-04-24T01:58:38;17.70;;;10.00;;
76727;SDS011;65652;53.132;18.026;2023-04-24T02:01:05;20.40;;;10.50;;
76727;SDS011;65652;53.132;18.026;2023-04-24T02:03:32;15.60;;;9.60;;
76727;SDS011;65652;53.132;18.026;2023-04-24T02:05:58;17.60;;;9.60;;
76727;SDS011;65652;53.132;18.026;2023-04-24T02:08:25;16.10;;;9.80;;
76727;SDS011;65652;53.132;18.026;2023-04-24T02:10:51;18.40;;;10.30;;
76727;SDS011;65652;53.132;18.026;2023-04-24T02:13:17;18.20;;;10.30;;
76727;SDS011;65652;53.132;18.026;2023-04-24T02:15:43;16.20;;;10.40;;
76727;SDS011;65652;53.132;18.026;2023-04-24T02:18:09;16.70;;;10.70;;
76727;SDS011;65652;53.132;18.026;2023-04-24T02:20:37;17.50;;;10.30;;
76727;SDS011;65652;53.132;18.026;2023-04-24T02:23:03;16.20;;;10.10;;
76727;SDS011;65652;53.132;18.026;2023-04-24T02:25:29;16.10;;;9.80;;
76727;SDS011;65652;53.132;18.026;2023-04-24T02:27:56;14.80;;;10.30;;
76727;SDS011;65652;53.132;18.026;2023-04-24T02:30:22;14.70;;;10.50;;
76727;SDS011;65652;53.132;18.026;2023-04-24T02:32:48;16.80;;;9.90;;
76727;SDS011;65652;53.132;18.026;2023-04-24T02:35:15;17.30;;;10.30;;
76727;SDS011;65652;53.132;18.026;2023-04-24T02:37:41;15.90;;;10.50;;
76727;SDS011;65652;53.132;18.026;2023-04-24T02:40:11;18.00;;;10.90;;
76727;SDS011;65652;53.132;18.026;2023-04-24T02:42:37;17.70;;;10.90;;
76727;SDS011;65652;53.132;18.026;2023-04-24T02:45:03;17.30;;;10.80;;
76727;SDS011;65652;53.132;18.026;2023-04-24T02:47:30;18.90;;;11.20;;
76727;SDS011;65652;53.132;18.026;2023-04-24T02:49:57;20.90;;;10.30;;
76727;SDS011;65652;53.132;18.026;2023-04-24T02:52:23;16.90;;;10.40;;
76727;SDS011;65652;53.132;18.026;2023-04-24T02:54:49;17.30;;;10.90;;
76727;SDS011;65652;53.132;18.026;2023-04-24T02:57:15;19.30;;;11.50;;
76727;SDS011;65652;53.132;18.026;2023-04-24T02:59:41;16.40;;;10.60;;
76727;SDS011;65652;53.132;18.026;2023-04-24T03:02:08;16.60;;;9.40;;
76727;SDS011;65652;53.132;18.026;2023-04-24T03:04:34;17.20;;;10.60;;
76727;SDS011;65652;53.132;18.026;2023-04-24T03:07:00;18.90;;;11.10;;
76727;SDS011;65652;53.132;18.026;2023-04-24T03:09:26;16.60;;;10.60;;
76727;SDS011;65652;53.132;18.026;2023-04-24T03:11:53;18.30;;;10.50;;
76727;SDS011;65652;53.132;18.026;2023-04-24T03:14:19;16.20;;;10.00;;
76727;SDS011;65652;53.132;18.026;2023-04-24T03:16:45;17.10;;;10.20;;
76727;SDS011;65652;53.132;18.026;2023-04-24T03:19:11;18.50;;;10.90;;
76727;SDS011;65652;53.132;18.026;2023-04-24T03:21:45;18.10;;;10.60;;
76727;SDS011;65652;53.132;18.026;2023-04-24T03:24:11;17.60;;;10.20;;
76727;SDS011;65652;53.132;18.026;2023-04-24T03:26:37;17.60;;;10.10;;
76727;SDS011;65652;53.132;18.026;2023-04-24T03:29:18;17.50;;;9.70;;
76727;SDS011;65652;53.132;18.026;2023-04-24T03:31:45;16.80;;;10.30;;
76727;SDS011;65652;53.132;18.026;2023-04-24T03:34:11;19.00;;;10.60;;
76727;SDS011;65652;53.132;18.026;2023-04-24T03:36:38;16.90;;;10.20;;
76727;SDS011;65652;53.132;18.026;2023-04-24T03:39:06;16.10;;;9.30;;
76727;SDS011;65652;53.132;18.026;2023-04-24T03:44:09;15.00;;;8.20;;
76727;SDS011;65652;53.132;18.026;2023-04-24T03:46:35;14.70;;;8.30;;
76727;SDS011;65652;53.132;18.026;2023-04-24T03:49:02;14.40;;;8.50;;
76727;SDS011;65652;53.132;18.026;2023-04-24T03:51:31;15.30;;;8.20;;
76727;SDS011;65652;53.132;18.026;2023-04-24T03:54:04;15.30;;;8.70;;
76727;SDS011;65652;53.132;18.026;2023-04-24T03:56:31;14.50;;;7.20;;
76727;SDS011;65652;53.132;18.026;2023-04-24T03:58:57;13.30;;;8.10;;
76727;SDS011;65652;53.132;18.026;2023-04-24T04:01:23;13.90;;;7.80;;
76727;SDS011;65652;53.132;18.026;2023-04-24T04:04:05;13.20;;;7.80;;
76727;SDS011;65652;53.132;18.026;2023-04-24T04:06:32;16.70;;;8.30;;
76727;SDS011;65652;53.132;18.026;2023-04-24T04:08:58;15.00;;;9.20;;
76727;SDS011;65652;53.132;18.026;2023-04-24T04:11:25;13.40;;;7.70;;
76727;SDS011;65652;53.132;18.026;2023-04-24T04:13:51;17.00;;;8.50;;
76727;SDS011;65652;53.132;18.026;2023-04-24T04:16:19;14.30;;;8.40;;
76727;SDS011;65652;53.132;18.026;2023-04-24T04:18:46;16.30;;;8.10;;
76727;SDS011;65652;53.132;18.026;2023-04-24T04:21:12;15.00;;;8.30;;
76727;SDS011;65652;53.132;18.026;2023-04-24T04:23:39;14.40;;;8.60;;
76727;SDS011;65652;53.132;18.026;2023-04-24T04:26:26;15.20;;;8.50;;
76727;SDS011;65652;53.132;18.026;2023-04-24T04:29:07;14.90;;;8.20;;
76727;SDS011;65652;53.132;18.026;2023-04-24T04:34:05;13.80;;;7.90;;
76727;SDS011;65652;53.132;18.026;2023-04-24T04:36:32;15.80;;;9.40;;
76727;SDS011;65652;53.132;18.026;2023-04-24T04:39:12;15.80;;;8.70;;
76727;SDS011;65652;53.132;18.026;2023-04-24T04:41:53;15.00;;;9.00;;
76727;SDS011;65652;53.132;18.026;2023-04-24T04:44:20;16.70;;;8.70;;
76727;SDS011;65652;53.132;18.026;2023-04-24T04:46:46;15.40;;;8.40;;
76727;SDS011;65652;53.132;18.026;2023-04-24T04:49:27;14.20;;;8.40;;
76727;SDS011;65652;53.132;18.026;2023-04-24T04:51:54;17.10;;;9.30;;
76727;SDS011;65652;53.132;18.026;2023-04-24T04:54:20;16.60;;;9.10;;
76727;SDS011;65652;53.132;18.026;2023-04-24T04:56:47;16.40;;;8.80;;
76727;SDS011;65652;53.132;18.026;2023-04-24T04:59:16;16.90;;;10.10;;
76727;SDS011;65652;53.132;18.026;2023-04-24T05:01:42;18.90;;;10.50;;
76727;SDS011;65652;53.132;18.026;2023-04-24T05:04:09;18.40;;;10.80;;
76727;SDS011;65652;53.132;18.026;2023-04-24T05:06:36;15.70;;;9.40;;
76727;SDS011;65652;53.132;18.026;2023-04-24T05:09:04;16.40;;;9.80;;
76727;SDS011;65652;53.132;18.026;2023-04-24T05:11:39;19.60;;;12.20;;
76727;SDS011;65652;53.132;18.026;2023-04-24T05:14:05;20.40;;;11.50;;
76727;SDS011;65652;53.132;18.026;2023-04-24T05:16:35;20.60;;;12.30;;
76727;SDS011;65652;53.132;18.026;2023-04-24T05:19:03;22.00;;;12.80;;
76727;SDS011;65652;53.132;18.026;2023-04-24T05:21:33;20.80;;;12.30;;
76727;SDS011;65652;53.132;18.026;2023-04-24T05:24:00;26.60;;;13.90;;
76727;SDS011;65652;53.132;18.026;2023-04-24T05:26:41;22.10;;;13.00;;
76727;SDS011;65652;53.132;18.026;2023-04-24T05:29:07;23.80;;;13.70;;
76727;SDS011;65652;53.132;18.026;2023-04-24T05:31:34;23.80;;;14.00;;
76727;SDS011;65652;53.132;18.026;2023-04-24T05:34:00;25.80;;;15.20;;
76727;SDS011;65652;53.132;18.026;2023-04-24T05:36:26;28.60;;;14.90;;
76727;SDS011;65652;53.132;18.026;2023-04-24T05:38:53;22.40;;;13.70;;
76727;SDS011;65652;53.132;18.026;2023-04-24T05:41:19;19.80;;;11.60;;
76727;SDS011;65652;53.132;18.026;2023-04-24T05:43:46;19.60;;;11.30;;
76727;SDS011;65652;53.132;18.026;2023-04-24T05:46:13;19.30;;;11.40;;
76727;SDS011;65652;53.132;18.026;2023-04-24T05:48:39;19.50;;;11.30;;
76727;SDS011;65652;53.132;18.026;2023-04-24T05:51:05;19.60;;;11.60;;
76727;SDS011;65652;53.132;18.026;2023-04-24T05:53:31;19.00;;;11.80;;
76727;SDS011;65652;53.132;18.026;2023-04-24T05:55:57;18.50;;;10.20;;
76727;SDS011;65652;53.132;18.026;2023-04-24T05:58:24;19.10;;;11.30;;
76727;SDS011;65652;53.132;18.026;2023-04-24T06:00:50;19.70;;;11.70;;
76727;SDS011;65652;53.132;18.026;2023-04-24T06:03:16;17.90;;;10.90;;
76727;SDS011;65652;53.132;18.026;2023-04-24T06:05:43;21.00;;;12.90;;
76727;SDS011;65652;53.132;18.026;2023-04-24T06:08:09;20.60;;;13.60;;
76727;SDS011;65652;53.132;18.026;2023-04-24T06:10:37;20.10;;;11.30;;
76727;SDS011;65652;53.132;18.026;2023-04-24T06:13:05;18.50;;;11.30;;
76727;SDS011;65652;53.132;18.026;2023-04-24T06:15:33;19.60;;;12.20;;
76727;SDS011;65652;53.132;18.026;2023-04-24T06:18:11;19.30;;;11.80;;
76727;SDS011;65652;53.132;18.026;2023-04-24T06:20:38;19.00;;;12.10;;
76727;SDS011;65652;53.132;18.026;2023-04-24T06:23:04;19.90;;;11.50;;
76727;SDS011;65652;53.132;18.026;2023-04-24T06:25:32;18.20;;;10.70;;
76727;SDS011;65652;53.132;18.026;2023-04-24T06:27:58;19.00;;;10.90;;
76727;SDS011;65652;53.132;18.026;2023-04-24T06:30:25;17.80;;;11.60;;
76727;SDS011;65652;53.132;18.026;2023-04-24T06:32:51;18.90;;;10.80;;
76727;SDS011;65652;53.132;18.026;2023-04-24T06:35:18;20.80;;;11.30;;
76727;SDS011;65652;53.132;18.026;2023-04-24T06:37:45;18.10;;;10.70;;
76727;SDS011;65652;53.132;18.026;2023-04-24T06:40:12;15.70;;;9.00;;
76727;SDS011;65652;53.132;18.026;2023-04-24T06:42:38;15.30;;;9.90;;
76727;SDS011;65652;53.132;18.026;2023-04-24T06:45:07;18.60;;;9.80;;
76727;SDS011;65652;53.132;18.026;2023-04-24T06:47:33;13.20;;;7.60;;
76727;SDS011;65652;53.132;18.026;2023-04-24T06:50:00;12.60;;;7.20;;
76727;SDS011;65652;53.132;18.026;2023-04-24T06:52:26;11.60;;;7.00;;
76727;SDS011;65652;53.132;18.026;2023-04-24T06:54:52;14.00;;;7.60;;
76727;SDS011;65652;53.132;18.026;2023-04-24T06:57:18;12.60;;;8.20;;
76727;SDS011;65652;53.132;18.026;2023-04-24T06:59:45;11.50;;;6.90;;
76727;SDS011;65652;53.132;18.026;2023-04-24T07:02:11;16.40;;;8.00;;
76727;SDS011;65652;53.132;18.026;2023-04-24T07:04:37;10.80;;;6.40;;
76727;SDS011;65652;53.132;18.026;2023-04-24T07:07:03;10.90;;;6.90;;
76727;SDS011;65652;53.132;18.026;2023-04-24T07:09:31;11.30;;;6.90;;
76727;SDS011;65652;53.132;18.026;2023-04-24T07:11:57;10.20;;;6.10;;
76727;SDS011;65652;53.132;18.026;2023-04-24T07:14:23;12.40;;;6.40;;
76727;SDS011;65652;53.132;18.026;2023-04-24T07:16:49;11.70;;;6.90;;
76727;SDS011;65652;53.132;18.026;2023-04-24T07:19:16;11.40;;;5.40;;
76727;SDS011;65652;53.132;18.026;2023-04-24T07:21:42;14.40;;;7.00;;
76727;SDS011;65652;53.132;18.026;2023-04-24T07:24:08;14.50;;;6.90;;
76727;SDS011;65652;53.132;18.026;2023-04-24T07:26:38;12.90;;;6.90;;
76727;SDS011;65652;53.132;18.026;2023-04-24T07:29:05;11.60;;;6.70;;
76727;SDS011;65652;53.132;18.026;2023-04-24T07:31:32;11.90;;;6.00;;
76727;SDS011;65652;53.132;18.026;2023-04-24T07:33:59;12.20;;;5.90;;
76727;SDS011;65652;53.132;18.026;2023-04-24T07:36:25;10.40;;;6.00;;
76727;SDS011;65652;53.132;18.026;2023-04-24T07:38:51;11.10;;;6.10;;
76727;SDS011;65652;53.132;18.026;2023-04-24T07:41:18;10.90;;;5.80;;
76727;SDS011;65652;53.132;18.026;2023-04-24T07:43:44;12.00;;;5.60;;
76727;SDS011;65652;53.132;18.026;2023-04-24T07:46:11;10.40;;;6.20;;
76727;SDS011;65652;53.132;18.026;2023-04-24T07:48:37;14.80;;;6.70;;
76727;SDS011;65652;53.132;18.026;2023-04-24T07:51:03;11.40;;;5.70;;
76727;SDS011;65652;53.132;18.026;2023-04-24T07:53:30;11.00;;;5.90;;
76727;SDS011;65652;53.132;18.026;2023-04-24T07:55:56;9.20;;;4.80;;
76727;SDS011;65652;53.132;18.026;2023-04-24T07:58:22;9.30;;;5.80;;
76727;SDS011;65652;53.132;18.026;2023-04-24T08:00:48;9.00;;;5.60;;
76727;SDS011;65652;53.132;18.026;2023-04-24T08:03:14;11.20;;;5.40;;
76727;SDS011;65652;53.132;18.026;2023-04-24T08:05:43;7.70;;;4.90;;
76727;SDS011;65652;53.132;18.026;2023-04-24T08:08:10;10.00;;;4.70;;
76727;SDS011;65652;53.132;18.026;2023-04-24T08:10:36;9.80;;;5.40;;
76727;SDS011;65652;53.132;18.026;2023-04-24T08:13:02;7.90;;;4.70;;
76727;SDS011;65652;53.132;18.026;2023-04-24T08:15:28;9.10;;;5.90;;
76727;SDS011;65652;53.132;18.026;2023-04-24T08:17:54;9.70;;;4.30;;
76727;SDS011;65652;53.132;18.026;2023-04-24T08:20:21;9.70;;;6.20;;
76727;SDS011;65652;53.132;18.026;2023-04-24T08:22:47;10.90;;;5.50;;
76727;SDS011;65652;53.132;18.026;2023-04-24T08:25:14;8.10;;;4.50;;
76727;SDS011;65652;53.132;18.026;2023-04-24T08:27:40;8.30;;;4.80;;
76727;SDS011;65652;53.132;18.026;2023-04-24T08:30:06;7.40;;;4.30;;
76727;SDS011;65652;53.132;18.026;2023-04-24T08:32:33;8.20;;;4.10;;
76727;SDS011;65652;53.132;18.026;2023-04-24T08:34:59;7.90;;;4.20;;
76727;SDS011;65652;53.132;18.026;2023-04-24T08:37:26;10.40;;;5.20;;
76727;SDS011;65652;53.132;18.026;2023-04-24T08:39:52;8.60;;;4.10;;
76727;SDS011;65652;53.132;18.026;2023-04-24T08:42:19;7.20;;;4.40;;
76727;SDS011;65652;53.132;18.026;2023-04-24T08:44:47;5.60;;;2.90;;
76727;SDS011;65652;53.132;18.026;2023-04-24T08:47:15;7.40;;;4.60;;
76727;SDS011;65652;53.132;18.026;2023-04-24T08:49:41;8.30;;;4.80;;
76727;SDS011;65652;53.132;18.026;2023-04-24T08:52:08;7.80;;;4.50;;
76727;SDS011;65652;53.132;18.026;2023-04-24T08:54:35;8.00;;;4.00;;
76727;SDS011;65652;53.132;18.026;2023-04-24T08:57:01;7.90;;;4.10;;
76727;SDS011;65652;53.132;18.026;2023-04-24T08:59:30;11.60;;;5.10;;
76727;SDS011;65652;53.132;18.026;2023-04-24T09:01:57;7.40;;;4.40;;
76727;SDS011;65652;53.132;18.026;2023-04-24T09:04:24;8.30;;;4.00;;
76727;SDS011;65652;53.132;18.026;2023-04-24T09:06:57;7.70;;;4.50;;
76727;SDS011;65652;53.132;18.026;2023-04-24T09:09:24;7.30;;;3.90;;
76727;SDS011;65652;53.132;18.026;2023-04-24T09:11:52;10.30;;;4.90;;
76727;SDS011;65652;53.132;18.026;2023-04-24T09:14:21;7.30;;;3.40;;
76727;SDS011;65652;53.132;18.026;2023-04-24T09:16:49;8.50;;;5.30;;
76727;SDS011;65652;53.132;18.026;2023-04-24T09:19:16;7.70;;;4.60;;
76727;SDS011;65652;53.132;18.026;2023-04-24T09:21:45;10.30;;;5.30;;
76727;SDS011;65652;53.132;18.026;2023-04-24T09:24:16;10.10;;;5.40;;
76727;SDS011;65652;53.132;18.026;2023-04-24T09:29:15;8.00;;;4.50;;
76727;SDS011;65652;53.132;18.026;2023-04-24T09:31:42;8.40;;;5.00;;
76727;SDS011;65652;53.132;18.026;2023-04-24T09:34:10;8.10;;;4.70;;
76727;SDS011;65652;53.132;18.026;2023-04-24T09:36:37;9.90;;;5.20;;
76727;SDS011;65652;53.132;18.026;2023-04-24T09:39:10;9.70;;;5.00;;
76727;SDS011;65652;53.132;18.026;2023-04-24T09:41:59;10.50;;;4.60;;
76727;SDS011;65652;53.132;18.026;2023-04-24T09:44:27;7.90;;;4.60;;
76727;SDS011;65652;53.132;18.026;2023-04-24T09:46:57;9.40;;;5.60;;
76727;SDS011;65652;53.132;18.026;2023-04-24T09:49:29;10.50;;;6.10;;
76727;SDS011;65652;53.132;18.026;2023-04-24T09:52:03;12.40;;;5.70;;
76727;SDS011;65652;53.132;18.026;2023-04-24T09:54:30;10.20;;;4.80;;
76727;SDS011;65652;53.132;18.026;2023-04-24T09:56:57;9.20;;;4.80;;
76727;SDS011;65652;53.132;18.026;2023-04-24T09:59:23;7.60;;;4.30;;
76727;SDS011;65652;53.132;18.026;2023-04-24T10:01:49;8.60;;;4.90;;
76727;SDS011;65652;53.132;18.026;2023-04-24T10:06:43;8.70;;;5.10;;
76727;SDS011;65652;53.132;18.026;2023-04-24T10:09:09;7.50;;;4.00;;
76727;SDS011;65652;53.132;18.026;2023-04-24T10:11:37;8.40;;;4.90;;
76727;SDS011;65652;53.132;18.026;2023-04-24T10:14:09;8.10;;;4.80;;
76727;SDS011;65652;53.132;18.026;2023-04-24T10:16:38;8.20;;;4.80;;
76727;SDS011;65652;53.132;18.026;2023-04-24T10:19:06;7.60;;;4.60;;
76727;SDS011;65652;53.132;18.026;2023-04-24T10:21:32;6.80;;;4.20;;
76727;SDS011;65652;53.132;18.026;2023-04-24T10:24:00;8.00;;;4.50;;
76727;SDS011;65652;53.132;18.026;2023-04-24T10:26:29;6.70;;;4.20;;
76727;SDS011;65652;53.132;18.026;2023-04-24T10:28:56;7.50;;;4.70;;
76727;SDS011;65652;53.132;18.026;2023-04-24T10:31:24;8.00;;;4.60;;
76727;SDS011;65652;53.132;18.026;2023-04-24T10:33:51;8.80;;;4.70;;
76727;SDS011;65652;53.132;18.026;2023-04-24T10:36:19;9.40;;;5.20;;
76727;SDS011;65652;53.132;18.026;2023-04-24T10:38:49;9.60;;;5.30;;
76727;SDS011;65652;53.132;18.026;2023-04-24T10:41:16;8.20;;;4.30;;
76727;SDS011;65652;53.132;18.026;2023-04-24T10:44:03;6.90;;;4.20;;
76727;SDS011;65652;53.132;18.026;2023-04-24T10:46:33;10.60;;;4.20;;
76727;SDS011;65652;53.132;18.026;2023-04-24T10:48:59;10.50;;;5.30;;
76727;SDS011;65652;53.132;18.026;2023-04-24T10:51:45;8.00;;;5.00;;
76727;SDS011;65652;53.132;18.026;2023-04-24T10:59:48;8.30;;;4.80;;
76727;SDS011;65652;53.132;18.026;2023-04-24T11:02:16;7.20;;;4.70;;
76727;SDS011;65652;53.132;18.026;2023-04-24T11:07:11;7.00;;;4.30;;
76727;SDS011;65652;53.132;18.026;2023-04-24T11:09:37;6.60;;;4.10;;
76727;SDS011;65652;53.132;18.026;2023-04-24T11:12:07;7.70;;;4.50;;
76727;SDS011;65652;53.132;18.026;2023-04-24T11:17:32;8.90;;;4.50;;
76727;SDS011;65652;53.132;18.026;2023-04-24T11:20:06;9.00;;;6.20;;
76727;SDS011;65652;53.132;18.026;2023-04-24T11:22:35;8.90;;;5.70;;
76727;SDS011;65652;53.132;18.026;2023-04-24T11:25:04;10.00;;;6.30;;
76727;SDS011;65652;53.132;18.026;2023-04-24T11:27:38;11.50;;;7.60;;
76727;SDS011;65652;53.132;18.026;2023-04-24T11:30:06;14.20;;;7.70;;
76727;SDS011;65652;53.132;18.026;2023-04-24T11:35:06;10.30;;;7.00;;
76727;SDS011;65652;53.132;18.026;2023-04-24T11:37:42;9.10;;;6.70;;
76727;SDS011;65652;53.132;18.026;2023-04-24T11:40:14;10.60;;;5.60;;
76727;SDS011;65652;53.132;18.026;2023-04-24T11:42:43;7.60;;;5.50;;
76727;SDS011;65652;53.132;18.026;2023-04-24T11:45:14;8.80;;;6.40;;
76727;SDS011;65652;53.132;18.026;2023-04-24T11:47:42;10.20;;;6.10;;
76727;SDS011;65652;53.132;18.026;2023-04-24T11:50:11;10.50;;;6.20;;
76727;SDS011;65652;53.132;18.026;2023-04-24T11:52:42;10.80;;;7.70;;
76727;SDS011;65652;53.132;18.026;2023-04-24T11:57:43;9.80;;;6.90;;
76727;SDS011;65652;53.132;18.026;2023-04-24T12:00:20;11.70;;;6.50;;
76727;SDS011;65652;53.132;18.026;2023-04-24T12:02:48;9.10;;;5.90;;
76727;SDS011;65652;53.132;18.026;2023-04-24T12:05:19;9.50;;;6.60;;
76727;SDS011;65652;53.132;18.026;2023-04-24T12:07:56;9.20;;;5.90;;
76727;SDS011;65652;53.132;18.026;2023-04-24T12:10:25;7.80;;;4.90;;
76727;SDS011;65652;53.132;18.026;2023-04-24T12:12:55;8.00;;;4.10;;
76727;SDS011;65652;53.132;18.026;2023-04-24T12:15:22;8.10;;;4.60;;
76727;SDS011;65652;53.132;18.026;2023-04-24T12:17:52;11.00;;;5.70;;
76727;SDS011;65652;53.132;18.026;2023-04-24T12:20:29;7.30;;;4.90;;
76727;SDS011;65652;53.132;18.026;2023-04-24T12:22:57;8.00;;;5.10;;
76727;SDS011;65652;53.132;18.026;2023-04-24T12:25:26;6.40;;;3.90;;
76727;SDS011;65652;53.132;18.026;2023-04-24T12:30:28;6.90;;;4.20;;
76727;SDS011;65652;53.132;18.026;2023-04-24T12:32:57;7.20;;;3.00;;
76727;SDS011;65652;53.132;18.026;2023-04-24T12:35:25;5.30;;;3.20;;
76727;SDS011;65652;53.132;18.026;2023-04-24T12:37:53;5.90;;;3.50;;
76727;SDS011;65652;53.132;18.026;2023-04-24T12:40:20;5.90;;;2.90;;
76727;SDS011;65652;53.132;18.026;2023-04-24T12:42:49;6.00;;;3.00;;
76727;SDS011;65652;53.132;18.026;2023-04-24T12:45:17;6.50;;;3.70;;
76727;SDS011;65652;53.132;18.026;2023-04-24T12:47:45;7.50;;;4.20;;
76727;SDS011;65652;53.132;18.026;2023-04-24T12:50:12;7.10;;;4.60;;
76727;SDS011;65652;53.132;18.026;2023-04-24T12:52:40;6.80;;;3.90;;
76727;SDS011;65652;53.132;18.026;2023-04-24T12:57:35;7.10;;;4.20;;
76727;SDS011;65652;53.132;18.026;2023-04-24T13:00:02;6.30;;;3.60;;
76727;SDS011;65652;53.132;18.026;2023-04-24T13:04:58;9.20;;;3.80;;
76727;SDS011;65652;53.132;18.026;2023-04-24T13:07:25;6.40;;;3.60;;
76727;SDS011;65652;53.132;18.026;2023-04-24T13:09:52;6.60;;;3.40;;
76727;SDS011;65652;53.132;18.026;2023-04-24T13:12:21;8.00;;;4.00;;
76727;SDS011;65652;53.132;18.026;2023-04-24T13:14:49;7.50;;;3.80;;
76727;SDS011;65652;53.132;18.026;2023-04-24T13:17:16;7.80;;;4.80;;
76727;SDS011;65652;53.132;18.026;2023-04-24T13:19:42;8.80;;;5.50;;
76727;SDS011;65652;53.132;18.026;2023-04-24T13:22:10;9.50;;;5.50;;
76727;SDS011;65652;53.132;18.026;2023-04-24T13:24:37;10.90;;;6.00;;
76727;SDS011;65652;53.132;18.026;2023-04-24T13:27:06;10.60;;;5.80;;
76727;SDS011;65652;53.132;18.026;2023-04-24T13:29:33;8.30;;;5.30;;
76727;SDS011;65652;53.132;18.026;2023-04-24T13:31:59;7.30;;;4.30;;
76727;SDS011;65652;53.132;18.026;2023-04-24T13:34:25;10.50;;;5.30;;
76727;SDS011;65652;53.132;18.026;2023-04-24T13:36:52;9.30;;;5.30;;
76727;SDS011;65652;53.132;18.026;2023-04-24T13:39:21;9.00;;;5.40;;
76727;SDS011;65652;53.132;18.026;2023-04-24T13:41:48;8.00;;;4.90;;
76727;SDS011;65652;53.132;18.026;2023-04-24T13:44:15;8.80;;;5.00;;
76727;SDS011;65652;53.132;18.026;2023-04-24T13:46:42;8.80;;;5.40;;
76727;SDS011;65652;53.132;18.026;2023-04-24T13:49:11;7.70;;;4.30;;
76727;SDS011;65652;53.132;18.026;2023-04-24T13:51:38;7.70;;;4.20;;
76727;SDS011;65652;53.132;18.026;2023-04-24T13:54:05;10.10;;;4.40;;
76727;SDS011;65652;53.132;18.026;2023-04-24T13:56:32;7.50;;;3.40;;
76727;SDS011;65652;53.132;18.026;2023-04-24T13:58:58;6.90;;;3.70;;
76727;SDS011;65652;53.132;18.026;2023-04-24T14:01:24;5.80;;;3.20;;
76727;SDS011;65652;53.132;18.026;2023-04-24T14:03:51;7.40;;;3.60;;
76727;SDS011;65652;53.132;18.026;2023-04-24T14:06:18;5.00;;;3.00;;
76727;SDS011;65652;53.132;18.026;2023-04-24T14:08:45;6.70;;;3.60;;
76727;SDS011;65652;53.132;18.026;2023-04-24T14:11:12;7.20;;;4.60;;
76727;SDS011;65652;53.132;18.026;2023-04-24T14:13:39;6.60;;;4.30;;
76727;SDS011;65652;53.132;18.026;2023-04-24T14:16:07;9.30;;;5.30;;
76727;SDS011;65652;53.132;18.026;2023-04-24T14:18:33;8.20;;;4.10;;
76727;SDS011;65652;53.132;18.026;2023-04-24T14:21:00;8.90;;;5.20;;
76727;SDS011;65652;53.132;18.026;2023-04-24T14:23:27;7.70;;;4.60;;
76727;SDS011;65652;53.132;18.026;2023-04-24T14:25:53;7.90;;;4.50;;
76727;SDS011;65652;53.132;18.026;2023-04-24T14:28:20;9.70;;;5.10;;
76727;SDS011;65652;53.132;18.026;2023-04-24T14:30:47;7.10;;;4.40;;
76727;SDS011;65652;53.132;18.026;2023-04-24T14:33:13;7.80;;;4.50;;
76727;SDS011;65652;53.132;18.026;2023-04-24T14:35:40;7.20;;;4.30;;
76727;SDS011;65652;53.132;18.026;2023-04-24T14:38:08;6.80;;;4.20;;
76727;SDS011;65652;53.132;18.026;2023-04-24T14:40:34;6.50;;;3.80;;
76727;SDS011;65652;53.132;18.026;2023-04-24T14:43:01;7.00;;;3.40;;
76727;SDS011;65652;53.132;18.026;2023-04-24T14:45:28;5.00;;;2.60;;
76727;SDS011;65652;53.132;18.026;2023-04-24T14:47:54;6.20;;;3.90;;
76727;SDS011;65652;53.132;18.026;2023-04-24T14:50:21;7.50;;;3.30;;
76727;SDS011;65652;53.132;18.026;2023-04-24T14:52:47;7.10;;;2.80;;
76727;SDS011;65652;53.132;18.026;2023-04-24T14:55:14;6.50;;;3.20;;
76727;SDS011;65652;53.132;18.026;2023-04-24T14:57:40;5.00;;;2.90;;
76727;SDS011;65652;53.132;18.026;2023-04-24T15:00:06;4.80;;;2.80;;
76727;SDS011;65652;53.132;18.026;2023-04-24T15:02:36;6.40;;;3.00;;